Protection Island, Washington
Current Conditions -  °F | °C
As of 12:56 AM on Friday 24 Oct 2014 (Local Time) from KNUW Reporting Station
Overcast Overcast  
Wind Chill: 51°   Ceiling: 14000
Heat Index: 51°   Visibility: 10mi
Dew Point: 45°   Wind: 10mph
Humidity: 80%   Direction: 110°ESE
Pressure: 30"   Gusts: NA
Location:  48.026°N, 122.859°W
Report Text: KNUW 240756Z 11009KT 10SM SCT020 SCT070 OVC140 11/07 A3000 RMK AO2 SLP163 T01060072 $
Loading
Personal Weather Stations






























Interactive Weather Map
Tropical Storm Tracking
New forecast layout! Learn more

10-Day Weather Forecast

Advertisements
Track Severe Weather on mobile